Time;durP1;ratioP1;P1;durP2;ratioP2;P2;SDS_P1;SDS_P2;PMS_P1;PMS_P2;Temp;Humidity;BMP_temperature;BMP_pressure;BME280_temperature;BME280_humidity;BME280_pressure;Samples;Min_cycle;Max_cycle;Signal;HPM_P1;HPM_P2
2021/11/22 00:01:51;;;;;;;41.75;24.52;;;;;;;6.12;83.57;100360.23;1757871;81;21941;-71
2021/11/22 00:04:18;;;;;;;34.80;22.80;;;;;;;6.15;83.52;100350.50;1757760;80;20971;-71
2021/11/22 00:06:45;;;;;;;33.92;22.82;;;;;;;6.18;83.29;100349.51;1757706;81;20932;-72
2021/11/22 00:09:12;;;;;;;40.60;23.90;;;;;;;6.18;83.20;100350.38;1757992;80;20956;-71
2021/11/22 00:11:39;;;;;;;35.83;23.73;;;;;;;6.20;83.29;100347.25;1757820;81;20896;-71
2021/11/22 00:14:07;;;;;;;44.58;27.15;;;;;;;6.23;83.57;100348.39;1757831;81;20884;-71
2021/11/22 00:16:35;;;;;;;41.75;24.57;;;;;;;6.29;83.75;100353.80;1757799;81;20940;-71
2021/11/22 00:19:04;;;;;;;46.55;24.85;;;;;;;6.34;83.88;100350.97;1757891;81;20848;-71
2021/11/22 00:21:32;;;;;;;43.90;25.68;;;;;;;6.40;84.00;100348.05;1757953;81;20888;-71
2021/11/22 00:23:59;;;;;;;37.00;25.62;;;;;;;6.46;84.01;100356.89;1758010;80;20829;-71
2021/11/22 00:26:26;;;;;;;39.38;24.40;;;;;;;6.51;84.07;100347.09;1757817;81;21542;-72
2021/11/22 00:28:55;;;;;;;43.92;24.47;;;;;;;6.59;84.12;100346.27;1757808;80;21503;-70
2021/11/22 00:31:30;;;;;;;36.73;23.87;;;;;;;6.66;84.03;100348.59;1750257;81;21403;-70
2021/11/22 00:34:00;;;;;;;42.03;23.73;;;;;;;6.73;84.08;100357.79;1757421;80;20880;-71
2021/11/22 00:36:47;;;;;;;39.42;26.40;;;;;;;6.79;84.01;100352.30;1756719;81;20896;-70
2021/11/22 00:39:14;;;;;;;41.88;26.02;;;;;;;6.83;83.80;100353.37;1758341;81;21648;-70
2021/11/22 00:41:41;;;;;;;39.88;25.08;;;;;;;6.85;83.73;100348.92;1757956;80;20841;-71
2021/11/22 00:44:08;;;;;;;41.58;26.93;;;;;;;6.88;83.67;100341.87;1757884;81;20928;-71
2021/11/22 00:46:35;;;;;;;44.95;26.15;;;;;;;6.90;83.57;100351.30;1757758;80;21003;-70
2021/11/22 00:49:02;;;;;;;46.77;24.67;;;;;;;6.92;83.54;100352.55;1757931;81;20924;-72
2021/11/22 00:51:29;;;;;;;45.58;24.92;;;;;;;6.94;83.56;100354.16;1757894;80;21040;-70
2021/11/22 00:53:57;;;;;;;43.33;26.60;;;;;;;6.97;83.49;100351.38;1757942;81;20951;-70
2021/11/22 00:56:24;;;;;;;43.02;25.52;;;;;;;6.99;83.41;100342.19;1757780;81;21317;-71
2021/11/22 00:58:51;;;;;;;45.58;27.67;;;;;;;7.00;83.38;100349.95;1758153;81;21393;-71
2021/11/22 01:01:18;;;;;;;57.80;29.82;;;;;;;6.97;83.35;100348.77;1757723;81;20928;-71
2021/11/22 01:03:47;;;;;;;55.48;28.85;;;;;;;6.94;83.34;100345.03;1757880;81;21100;-70
2021/11/22 01:06:14;;;;;;;64.58;31.68;;;;;;;6.94;83.38;100338.98;1757914;81;21104;-72
2021/11/22 01:08:42;;;;;;;52.17;28.12;;;;;;;6.91;83.40;100335.20;1757861;80;20928;-71
2021/11/22 01:11:09;;;;;;;51.65;28.67;;;;;;;6.90;83.41;100344.79;1757919;80;21382;-70
2021/11/22 01:13:36;;;;;;;44.40;26.68;;;;;;;6.88;83.45;100344.48;1757773;80;20904;-70
2021/11/22 01:16:03;;;;;;;43.15;27.55;;;;;;;6.87;83.46;100343.65;1757854;81;21126;-71
2021/11/22 01:18:32;;;;;;;46.68;29.02;;;;;;;6.86;83.46;100351.06;1757735;81;20880;-72
2021/11/22 01:20:59;;;;;;;46.15;27.55;;;;;;;6.86;83.46;100358.88;1758208;81;20920;-71
2021/11/22 01:23:25;;;;;;;46.95;27.45;;;;;;;6.87;83.48;100356.69;1757729;81;21449;-71
2021/11/22 01:25:52;;;;;;;38.10;26.68;;;;;;;6.89;83.41;100361.80;1758062;80;20888;-72
2021/11/22 01:28:19;;;;;;;39.67;27.15;;;;;;;6.88;83.39;100366.17;1757789;81;21782;-70
2021/11/22 01:30:46;;;;;;;35.38;24.12;;;;;;;6.88;83.41;100366.17;1757905;81;20893;-72
2021/11/22 01:33:13;;;;;;;40.50;25.72;;;;;;;6.86;83.36;100362.80;1757835;80;21326;-72
2021/11/22 01:35:43;;;;;;;40.65;26.68;;;;;;;6.82;83.34;100359.95;1750916;81;21427;-71
2021/11/22 01:38:11;;;;;;;39.78;26.93;;;;;;;6.80;83.40;100368.30;1744536;80;20877;-71
2021/11/22 01:40:38;;;;;;;37.98;26.70;;;;;;;6.78;83.47;100369.70;1744763;80;21111;-72
2021/11/22 01:43:06;;;;;;;40.12;25.50;;;;;;;6.80;83.50;100362.66;1744378;81;20940;-71
2021/11/22 01:45:33;;;;;;;38.25;26.37;;;;;;;6.81;83.47;100361.72;1744830;80;20920;-70
2021/11/22 01:48:01;;;;;;;38.30;26.07;;;;;;;6.82;83.42;100356.88;1744449;80;20897;-71
2021/11/22 01:50:28;;;;;;;38.78;26.40;;;;;;;6.81;83.40;100354.36;1744403;82;20952;-71
2021/11/22 01:52:55;;;;;;;38.10;25.20;;;;;;;6.82;83.39;100353.44;1744528;81;21140;-71
2021/11/22 01:55:24;;;;;;;35.98;26.07;;;;;;;6.81;83.35;100347.84;1744764;82;20916;-71
2021/11/22 01:57:52;;;;;;;40.58;26.20;;;;;;;6.79;83.32;100347.91;1744790;81;21380;-72
2021/11/22 02:00:24;;;;;;;36.73;25.75;;;;;;;6.78;83.32;100360.58;1744568;81;21423;-70
2021/11/22 02:02:52;;;;;;;43.35;26.97;;;;;;;6.76;83.29;100353.72;1744840;81;21323;-71
2021/11/22 02:05:19;;;;;;;37.70;25.97;;;;;;;6.73;83.29;100353.88;1744847;81;21060;-71
2021/11/22 02:07:46;;;;;;;39.65;26.85;;;;;;;6.69;83.29;100358.85;1744626;81;21101;-70
2021/11/22 02:10:13;;;;;;;38.30;26.37;;;;;;;6.66;83.39;100359.02;1744817;81;21442;-71
2021/11/22 02:12:40;;;;;;;38.67;26.85;;;;;;;6.61;83.45;100365.75;1744577;80;21300;-71
2021/11/22 02:15:08;;;;;;;37.93;26.52;;;;;;;6.57;83.56;100356.38;1744809;81;21999;-70
2021/11/22 02:17:38;;;;;;;38.05;26.97;;;;;;;6.55;83.66;100353.00;1744575;81;21899;-71
2021/11/22 02:20:09;;;;;;;39.42;26.77;;;;;;;6.54;83.66;100358.69;1744497;82;20972;-71
2021/11/22 02:22:36;;;;;;;39.13;25.55;;;;;;;6.56;83.70;100354.25;1744865;80;20901;-70
2021/11/22 02:25:07;;;;;;;41.15;26.87;;;;;;;6.56;83.61;100341.22;1744656;81;20928;-70
2021/11/22 02:27:34;;;;;;;41.73;26.87;;;;;;;6.54;83.56;100350.87;1745043;80;21288;-70
2021/11/22 02:30:01;;;;;;;41.42;29.65;;;;;;;6.53;83.55;100359.58;1744529;80;21155;-71
2021/11/22 02:32:28;;;;;;;39.48;27.07;;;;;;;6.51;83.56;100354.06;1744466;82;20972;-69
2021/11/22 02:34:55;;;;;;;44.98;28.83;;;;;;;6.49;83.56;100349.38;1744966;80;21542;-71
2021/11/22 02:37:23;;;;;;;41.75;28.77;;;;;;;6.48;83.56;100362.87;1757953;81;21473;-71
2021/11/22 02:39:50;;;;;;;41.18;26.55;;;;;;;6.48;83.53;100365.48;1757967;81;20889;-69
2021/11/22 02:42:28;;;;;;;43.87;28.20;;;;;;;6.46;83.50;100371.22;1757930;80;21417;-71
2021/11/22 02:44:57;;;;;;;43.98;28.50;;;;;;;6.40;83.48;100381.48;1757786;81;21505;-69
2021/11/22 02:47:24;;;;;;;41.05;28.12;;;;;;;6.36;83.62;100381.23;1741212;81;20865;-72
2021/11/22 02:49:51;;;;;;;38.88;26.20;;;;;;;6.33;83.73;100380.05;1757944;81;20969;-72
2021/11/22 02:52:18;;;;;;;38.15;27.95;;;;;;;6.33;83.83;100380.05;1758017;80;20940;-70
2021/11/22 02:54:44;;;;;;;40.43;25.97;;;;;;;6.33;83.94;100376.61;1757865;81;22146;-70
2021/11/22 02:57:12;;;;;;;41.08;26.73;;;;;;;6.34;83.92;100388.27;1758012;81;20952;-70
2021/11/22 02:59:40;;;;;;;41.48;28.47;;;;;;;6.33;83.93;100386.56;1757849;80;21010;-71
2021/11/22 03:02:08;;;;;;;43.15;32.28;;;;;;;6.34;84.02;100388.73;1757764;81;20964;-71
2021/11/22 03:04:39;;;;;;;44.30;31.40;;;;;;;6.35;84.01;100386.50;1757950;80;20896;-72
2021/11/22 03:07:06;;;;;;;40.30;28.25;;;;;;;6.35;83.97;100378.69;1757449;81;21350;-70
2021/11/22 03:09:33;;;;;;;43.40;29.80;;;;;;;6.36;83.95;100386.44;1757772;81;20849;-71
2021/11/22 03:12:02;;;;;;;41.08;28.02;;;;;;;6.37;83.89;100392.02;1757991;81;20945;-72
2021/11/22 03:14:29;;;;;;;37.25;25.32;;;;;;;6.38;83.81;100393.72;1757931;80;20876;-70
2021/11/22 03:16:56;;;;;;;36.95;27.32;;;;;;;6.40;83.74;100391.90;1757882;80;20951;-70
2021/11/22 03:19:23;;;;;;;41.18;26.77;;;;;;;6.39;83.61;100394.09;1758128;81;21494;-68
2021/11/22 03:21:50;;;;;;;37.35;27.13;;;;;;;6.40;83.61;100389.30;1757914;80;21397;-70
2021/11/22 03:24:16;;;;;;;40.92;28.57;;;;;;;6.41;83.54;100384.92;1758523;81;20940;-70
2021/11/22 03:26:43;;;;;;;43.45;29.15;;;;;;;6.39;83.52;100394.56;1758058;80;20872;-71
2021/11/22 03:29:11;;;;;;;39.92;29.12;;;;;;;6.39;83.45;100390.19;1758089;81;21390;-69
2021/11/22 03:31:39;;;;;;;39.98;29.23;;;;;;;6.38;83.23;100387.22;1757847;81;21071;-71
2021/11/22 03:34:08;;;;;;;40.78;29.02;;;;;;;6.36;83.14;100396.02;1757877;80;20928;-71
2021/11/22 03:36:35;;;;;;;38.85;28.10;;;;;;;6.34;83.18;100388.27;1750030;81;21019;-71
2021/11/22 03:39:08;;;;;;;48.75;32.08;;;;;;;6.30;83.23;100391.92;1744515;81;20905;-71
2021/11/22 03:41:35;;;;;;;44.10;30.75;;;;;;;6.29;83.35;100395.45;1744763;81;21008;-70
2021/11/22 03:44:13;;;;;;;39.73;29.05;;;;;;;6.28;83.41;100399.42;1744858;82;21061;-69
2021/11/22 03:46:51;;;;;;;41.90;28.80;;;;;;;6.28;83.44;100404.62;1744623;81;20846;-73
2021/11/22 03:49:18;;;;;;;44.83;31.15;;;;;;;6.26;83.53;100408.59;1744740;80;20925;-72
2021/11/22 03:51:46;;;;;;;44.77;29.72;;;;;;;6.20;83.52;100402.36;1744552;81;20938;-72
2021/11/22 03:54:13;;;;;;;49.42;31.95;;;;;;;6.26;83.68;100405.16;1744940;81;20893;-72
2021/11/22 03:56:40;;;;;;;47.08;31.70;;;;;;;6.26;83.66;100406.45;1744539;82;21185;-71
2021/11/22 03:59:07;;;;;;;38.40;27.95;;;;;;;6.27;83.68;100409.44;1744729;81;20976;-71
2021/11/22 04:01:35;;;;;;;42.05;27.70;;;;;;;6.28;83.63;100411.98;1744589;81;20905;-70
2021/11/22 04:04:03;;;;;;;41.28;26.77;;;;;;;6.29;83.61;100414.98;1744900;81;20921;-71
2021/11/22 04:06:30;;;;;;;41.28;28.57;;;;;;;6.31;83.65;100411.83;1744841;81;20881;-70
2021/11/22 04:08:59;;;;;;;39.92;26.15;;;;;;;6.34;83.58;100410.87;1744573;81;20917;-72
2021/11/22 04:11:25;;;;;;;40.98;28.60;;;;;;;6.35;83.50;100407.34;1744574;81;21461;-70
2021/11/22 04:13:53;;;;;;;45.23;27.30;;;;;;;6.34;83.46;100406.50;1744779;81;20877;-71
2021/11/22 04:16:21;;;;;;;40.95;28.10;;;;;;;6.32;83.43;100409.63;1744534;81;21410;-73
2021/11/22 04:18:49;;;;;;;41.42;28.62;;;;;;;6.30;83.32;100415.83;1744736;81;20913;-73
2021/11/22 04:21:19;;;;;;;47.40;30.90;;;;;;;6.28;83.28;100416.34;1744762;81;21878;-72
2021/11/22 04:23:47;;;;;;;44.65;30.12;;;;;;;6.26;83.21;100415.11;1744565;81;20893;-70
2021/11/22 04:26:14;;;;;;;43.25;28.77;;;;;;;6.26;83.23;100427.28;1744696;82;20909;-71
2021/11/22 04:28:41;;;;;;;43.95;30.68;;;;;;;6.22;83.28;100431.78;1744558;81;20944;-72
2021/11/22 04:31:08;;;;;;;44.38;29.52;;;;;;;6.20;83.36;100434.47;1744969;81;20956;-71
2021/11/22 04:33:36;;;;;;;49.15;31.45;;;;;;;6.21;83.44;100443.13;1744448;81;21105;-70
2021/11/22 04:36:04;;;;;;;47.03;29.27;;;;;;;6.23;83.54;100439.99;1744612;80;21004;-72
2021/11/22 04:38:32;;;;;;;49.35;29.35;;;;;;;6.27;83.55;100445.89;1744645;81;20877;-71
2021/11/22 04:40:59;;;;;;;44.10;29.23;;;;;;;6.28;83.61;100447.13;1744902;81;20929;-70
2021/11/22 04:43:26;;;;;;;43.60;29.65;;;;;;;6.31;83.53;100455.26;1744672;82;20897;-71
2021/11/22 04:45:53;;;;;;;45.35;30.68;;;;;;;6.29;83.47;100463.16;1744874;81;21482;-71
2021/11/22 04:48:20;;;;;;;42.48;28.62;;;;;;;6.25;83.47;100459.44;1744508;81;20894;-72
2021/11/22 04:50:47;;;;;;;46.30;28.98;;;;;;;6.20;83.47;100461.81;1744465;81;20932;-72
2021/11/22 04:53:15;;;;;;;47.08;31.07;;;;;;;6.19;83.52;100467.08;1744431;80;20996;-70
2021/11/22 04:55:42;;;;;;;53.33;33.35;;;;;;;6.18;83.60;100472.75;1744599;81;20845;-72
2021/11/22 04:58:09;;;;;;;47.25;30.05;;;;;;;6.20;83.70;100468.75;1744554;81;21500;-72
2021/11/22 05:00:36;;;;;;;49.27;31.15;;;;;;;6.20;83.76;100468.75;1744545;81;20976;-72
2021/11/22 05:03:06;;;;;;;44.83;30.25;;;;;;;6.22;83.88;100473.00;1744572;81;21874;-70
2021/11/22 05:05:34;;;;;;;43.13;28.70;;;;;;;6.25;83.90;100481.13;1744600;82;20940;-72
2021/11/22 05:08:08;;;;;;;46.48;29.90;;;;;;;6.27;83.89;100484.52;1744748;81;20893;-72
2021/11/22 05:10:41;;;;;;;45.20;28.55;;;;;;;6.29;83.91;100486.59;1744664;81;21144;-72
2021/11/22 05:13:14;;;;;;;47.30;31.40;;;;;;;6.33;83.95;100490.73;1744865;81;20937;-72
2021/11/22 05:15:41;;;;;;;41.08;30.65;;;;;;;6.37;83.89;100490.98;1744661;81;21335;-72
2021/11/22 05:18:10;;;;;;;40.85;27.42;;;;;;;6.41;83.81;100501.66;1744617;81;20969;-74
2021/11/22 05:20:38;;;;;;;46.28;30.27;;;;;;;6.44;83.68;100498.08;1744722;82;21355;-76
2021/11/22 05:23:04;;;;;;;39.65;28.42;;;;;;;6.45;83.61;100502.39;1744492;81;21123;-76
2021/11/22 05:25:31;;;;;;;43.90;29.20;;;;;;;6.46;83.45;100509.73;1744555;81;20893;-76
2021/11/22 05:27:59;;;;;;;44.30;30.23;;;;;;;6.47;83.34;100502.30;1744626;81;20900;-77
2021/11/22 05:30:26;;;;;;;53.42;32.78;;;;;;;6.47;83.17;100507.07;1744325;81;20908;-76
2021/11/22 05:32:55;;;;;;;51.53;32.33;;;;;;;6.46;83.13;100514.95;1744863;81;20980;-76
2021/11/22 05:35:23;;;;;;;50.05;32.20;;;;;;;6.44;83.20;100511.94;1744578;81;21128;-79
2021/11/22 05:37:50;;;;;;;50.60;30.85;;;;;;;6.45;83.25;100514.11;1744501;80;21435;-78
2021/11/22 05:40:16;;;;;;;44.45;28.98;;;;;;;6.49;83.32;100508.28;1744420;80;20877;-76
2021/11/22 05:42:43;;;;;;;41.28;27.60;;;;;;;6.52;83.31;100509.00;1744865;81;21387;-78
2021/11/22 05:45:11;;;;;;;38.05;27.15;;;;;;;6.60;83.28;100513.85;1744943;81;21049;-77
2021/11/22 05:49:31;;;;;;;42.95;28.62;;;;;;;6.74;83.03;100520.61;1854493;77;22491;-77
2021/11/22 05:51:56;;;;;;;40.78;28.70;;;;;;;6.77;82.99;100528.73;1822202;78;21381;-76
2021/11/22 05:54:24;;;;;;;40.38;28.40;;;;;;;6.87;82.82;100527.41;1822607;78;21117;-77
2021/11/22 05:56:52;;;;;;;43.15;28.62;;;;;;;6.95;82.47;100533.09;1822097;78;21381;-78
2021/11/22 05:59:19;;;;;;;40.73;27.75;;;;;;;7.03;82.13;100537.50;1822065;78;20962;-78
2021/11/22 06:01:47;;;;;;;39.00;27.58;;;;;;;7.09;81.87;100538.13;1817190;78;20983;-77
2021/11/22 06:04:14;;;;;;;40.60;28.32;;;;;;;7.15;81.66;100545.20;1789919;80;21646;-78
2021/11/22 06:06:41;;;;;;;35.58;25.43;;;;;;;7.21;81.39;100549.30;1790045;80;21152;-78
2021/11/22 06:09:08;;;;;;;41.55;28.55;;;;;;;7.26;81.21;100546.00;1790007;79;21087;-79
2021/11/22 06:11:37;;;;;;;35.55;26.12;;;;;;;7.32;81.00;100546.19;1759649;80;20880;-77
2021/11/22 06:14:04;;;;;;;37.53;25.48;;;;;;;7.39;80.82;100552.33;1789747;79;20879;-76
2021/11/22 06:16:32;;;;;;;37.15;26.37;;;;;;;7.45;80.57;100545.98;1789607;80;21024;-79
2021/11/22 06:18:58;;;;;;;37.23;27.20;;;;;;;7.52;80.29;100552.59;1788971;79;21126;-77
2021/11/22 06:21:25;;;;;;;41.83;26.20;;;;;;;7.54;79.89;100553.36;1788242;79;21512;-77
2021/11/22 06:23:52;;;;;;;43.83;27.32;;;;;;;7.55;79.49;100553.73;1788122;80;21455;-76
2021/11/22 06:26:19;;;;;;;41.75;29.23;;;;;;;7.53;79.39;100552.95;1788123;79;20967;-76
2021/11/22 06:28:46;;;;;;;41.10;28.80;;;;;;;7.55;79.25;100556.34;1787820;79;20998;-76
2021/11/22 06:31:13;;;;;;;40.35;27.73;;;;;;;7.56;79.15;100547.61;1789304;79;21144;-76
2021/11/22 06:33:40;;;;;;;44.13;28.70;;;;;;;7.59;79.07;100553.14;1789744;80;20864;-77
2021/11/22 06:36:07;;;;;;;32.73;26.35;;;;;;;7.59;78.95;100558.36;1789748;79;21440;-76
2021/11/22 06:38:34;;;;;;;36.13;27.32;;;;;;;7.60;78.90;100550.90;1790017;79;20998;-77
2021/11/22 06:41:01;;;;;;;36.83;25.62;;;;;;;7.65;78.87;100557.59;1789952;79;21358;-75
2021/11/22 06:43:28;;;;;;;42.38;28.85;;;;;;;7.71;78.64;100562.13;1790064;79;21144;-74
2021/11/22 06:45:55;;;;;;;42.08;27.70;;;;;;;7.71;78.36;100552.98;1789773;79;20871;-75
2021/11/22 06:48:23;;;;;;;39.33;29.02;;;;;;;7.70;78.24;100556.53;1792072;80;20939;-75
2021/11/22 06:50:50;;;;;;;40.20;27.27;;;;;;;7.69;78.15;100555.66;1795220;79;20876;-74
2021/11/22 06:53:22;;;;;;;39.63;29.12;;;;;;;7.69;77.99;100559.58;1795426;79;20982;-75
2021/11/22 06:55:50;;;;;;;36.35;25.52;;;;;;;7.68;77.91;100562.66;1795025;79;21816;-76
2021/11/22 06:58:17;;;;;;;37.55;25.90;;;;;;;7.66;77.89;100564.96;1795358;80;20954;-75
2021/11/22 07:00:45;;;;;;;40.98;26.82;;;;;;;7.66;78.01;100559.73;1794749;79;21416;-75
2021/11/22 07:03:12;;;;;;;38.15;26.97;;;;;;;7.69;78.12;100562.19;1794701;80;20963;-76
2021/11/22 07:05:41;;;;;;;40.33;27.45;;;;;;;7.71;77.85;100555.13;1794782;79;20887;-75
2021/11/22 07:08:08;;;;;;;38.50;27.32;;;;;;;7.68;77.79;100549.60;1794304;79;21568;-75
2021/11/22 07:10:37;;;;;;;37.58;27.67;;;;;;;7.66;77.81;100555.83;1794661;79;21467;-75
2021/11/22 07:13:04;;;;;;;39.18;26.05;;;;;;;7.63;77.73;100554.69;1795072;79;21361;-75
2021/11/22 07:15:36;;;;;;;39.40;27.15;;;;;;;7.62;77.79;100556.89;1794638;79;20932;-76
2021/11/22 07:18:04;;;;;;;37.95;26.27;;;;;;;7.63;77.89;100558.13;1795239;80;20931;-77
2021/11/22 07:20:31;;;;;;;35.35;26.97;;;;;;;7.66;77.92;100552.75;1794856;79;21972;-75
2021/11/22 07:23:00;;;;;;;36.55;25.48;;;;;;;7.70;77.95;100556.06;1794611;79;20871;-75
2021/11/22 07:25:28;;;;;;;34.08;24.60;;;;;;;7.76;77.95;100555.77;1794695;80;20926;-75
2021/11/22 07:27:55;;;;;;;37.90;25.95;;;;;;;7.82;77.79;100567.19;1794587;79;21025;-76
2021/11/22 07:30:28;;;;;;;38.88;28.07;;;;;;;7.88;77.74;100565.59;1794877;79;20891;-77
2021/11/22 07:32:56;;;;;;;38.38;27.15;;;;;;;7.98;77.72;100567.73;1794814;79;21121;-76
2021/11/22 07:35:22;;;;;;;37.88;27.22;;;;;;;8.05;77.36;100565.23;1795213;79;21341;-74
2021/11/22 07:37:50;;;;;;;40.60;26.57;;;;;;;8.06;77.08;100571.66;1794704;80;20879;-75
2021/11/22 07:40:22;;;;;;;40.08;27.42;;;;;;;8.09;76.87;100574.13;1794957;80;20971;-74
2021/11/22 07:42:46;;;;;;;38.20;26.93;;;;;;;8.13;76.82;100584.41;1793676;80;20906;-74
2021/11/22 07:45:13;;;;;;;38.45;26.60;;;;;;;8.18;76.72;100586.33;1794677;79;21135;-75
2021/11/22 07:47:40;;;;;;;36.83;25.45;;;;;;;8.22;76.40;100582.64;1794220;79;20840;-75
2021/11/22 07:50:08;;;;;;;32.45;24.80;;;;;;;8.25;76.16;100587.26;1759892;80;20883;-73
2021/11/22 07:52:35;;;;;;;35.85;26.10;;;;;;;8.28;76.18;100589.70;1760004;81;20985;-74
2021/11/22 07:55:02;;;;;;;37.70;27.25;;;;;;;8.32;75.99;100590.88;1760082;81;20843;-74
2021/11/22 07:57:30;;;;;;;47.25;31.68;;;;;;;8.30;75.75;100585.25;1760081;81;21154;-74
2021/11/22 07:59:57;;;;;;;40.35;28.47;;;;;;;8.30;75.71;100585.72;1760091;81;21471;-75
2021/11/22 08:02:24;;;;;;;37.23;26.52;;;;;;;8.26;75.38;100590.70;1760232;81;21625;-78
2021/11/22 08:04:51;;;;;;;38.70;26.17;;;;;;;8.23;75.39;100589.10;1759979;81;20851;-76
2021/11/22 08:07:20;;;;;;;36.17;26.57;;;;;;;8.18;75.36;100584.58;1759959;81;21013;-79
2021/11/22 08:09:56;;;;;;;37.63;27.00;;;;;;;8.16;75.59;100589.03;1760224;81;22239;-77
2021/11/22 08:14:49;;;;;;;38.35;27.30;;;;;;;8.22;75.62;100591.78;1760158;81;21404;-77
2021/11/22 08:17:16;;;;;;;41.05;29.72;;;;;;;8.27;75.71;100588.03;1759988;81;20930;-75
2021/11/22 08:19:43;;;;;;;36.95;27.22;;;;;;;8.35;75.63;100586.31;1760207;80;20839;-77
2021/11/22 08:22:10;;;;;;;40.38;29.20;;;;;;;8.41;75.66;100587.34;1760241;81;21766;-77
2021/11/22 08:24:37;;;;;;;38.50;28.27;;;;;;;8.54;75.49;100598.02;1760020;81;21174;-76
2021/11/22 08:27:04;;;;;;;39.83;27.20;;;;;;;8.67;75.26;100593.84;1760294;81;20859;-76
2021/11/22 08:29:31;;;;;;;41.42;27.27;;;;;;;8.83;74.75;100595.65;1760063;81;20871;-77
2021/11/22 08:31:58;;;;;;;34.55;24.63;;;;;;;8.98;74.24;100593.52;1760237;80;21365;-75
2021/11/22 08:34:26;;;;;;;35.45;26.17;;;;;;;9.10;73.70;100591.53;1760251;81;21117;-75
2021/11/22 08:36:53;;;;;;;33.40;24.47;;;;;;;9.20;73.17;100594.95;1760229;81;20883;-77
2021/11/22 08:39:20;;;;;;;34.27;25.08;;;;;;;9.27;72.95;100596.30;1759959;81;20950;-75
2021/11/22 08:41:47;;;;;;;39.45;27.37;;;;;;;9.37;72.50;100595.34;1760310;81;20922;-76
2021/11/22 08:44:14;;;;;;;32.73;25.30;;;;;;;9.40;72.02;100580.77;1760154;81;20867;-76
2021/11/22 08:46:41;;;;;;;39.55;26.40;;;;;;;9.39;71.42;100585.17;1760170;80;21125;-75
2021/11/22 08:49:09;;;;;;;35.17;26.42;;;;;;;9.30;71.41;100586.99;1759952;79;21411;-77
2021/11/22 08:51:37;;;;;;;43.85;30.17;;;;;;;9.22;71.57;100583.95;1760240;81;20871;-74
2021/11/22 08:54:04;;;;;;;36.15;27.10;;;;;;;9.21;71.83;100586.20;1760415;81;20922;-77
2021/11/22 08:56:31;;;;;;;31.50;24.63;;;;;;;9.29;71.74;100595.31;1760080;81;20973;-75
2021/11/22 08:58:58;;;;;;;33.45;25.45;;;;;;;9.37;71.40;100602.73;1732772;81;21497;-76
2021/11/22 09:01:26;;;;;;;32.75;26.93;;;;;;;9.44;71.39;100596.22;1759989;81;21013;-76
2021/11/22 09:03:54;;;;;;;34.58;26.02;;;;;;;9.55;71.39;100589.91;1760174;80;20852;-76
2021/11/22 09:06:21;;;;;;;35.23;25.90;;;;;;;9.71;70.83;100587.27;1759946;80;21463;-75
2021/11/22 09:08:48;;;;;;;33.58;25.40;;;;;;;9.82;70.39;100589.75;1759953;81;20922;-76
2021/11/22 09:11:16;;;;;;;38.98;28.23;;;;;;;9.93;69.98;100589.50;1759960;81;20934;-77
2021/11/22 09:13:45;;;;;;;33.83;25.95;;;;;;;10.04;69.73;100588.88;1759995;81;20970;-77
2021/11/22 09:16:13;;;;;;;36.63;26.57;;;;;;;10.20;69.45;100598.47;1759975;81;20883;-77
2021/11/22 09:18:42;;;;;;;34.73;27.15;;;;;;;10.34;69.15;100592.83;1759883;80;21389;-75
2021/11/22 09:21:09;;;;;;;33.65;25.45;;;;;;;10.50;68.63;100599.78;1760062;81;20855;-76
2021/11/22 09:23:36;;;;;;;31.20;24.55;;;;;;;10.62;68.29;100594.26;1760401;81;21163;-74
2021/11/22 09:26:03;;;;;;;33.98;25.77;;;;;;;10.73;67.67;100588.73;1759933;81;20883;-75
2021/11/22 09:28:33;;;;;;;33.38;25.88;;;;;;;10.83;67.18;100589.02;1760441;81;20996;-74
2021/11/22 09:30:59;;;;;;;34.23;25.70;;;;;;;10.89;66.81;100586.47;1760347;81;20950;-75
2021/11/22 09:33:26;;;;;;;35.03;28.47;;;;;;;10.90;66.49;100593.42;1760069;80;20970;-79
2021/11/22 09:35:53;;;;;;;33.65;27.82;;;;;;;10.84;66.18;100586.76;1760040;81;22082;-74
2021/11/22 09:38:20;;;;;;;31.77;26.02;;;;;;;10.78;66.28;100590.63;1760269;80;20934;-74
2021/11/22 09:40:47;;;;;;;38.70;29.80;;;;;;;10.68;66.46;100588.17;1760383;81;20979;-73
2021/11/22 09:43:13;;;;;;;37.28;28.50;;;;;;;10.58;66.68;100603.63;1759934;80;20851;-73
2021/11/22 09:45:40;;;;;;;36.08;27.10;;;;;;;10.46;66.74;100597.80;1760389;81;20907;-70
2021/11/22 09:48:07;;;;;;;36.58;27.13;;;;;;;10.37;67.08;100603.13;1732648;81;21832;-72
2021/11/22 09:50:34;;;;;;;35.15;26.17;;;;;;;10.28;67.36;100602.80;1787085;79;20895;-71
2021/11/22 09:53:02;;;;;;;38.60;28.32;;;;;;;10.19;67.55;100608.59;1789252;79;20891;-71
2021/11/22 09:55:31;;;;;;;38.02;28.12;;;;;;;10.09;67.86;100605.20;1788999;79;21464;-71
2021/11/22 09:58:00;;;;;;;39.60;27.65;;;;;;;10.02;68.10;100597.77;1789334;79;21405;-72
2021/11/22 10:00:48;;;;;;;33.10;26.50;;;;;;;9.96;68.32;100601.12;1788925;80;21814;-72
2021/11/22 10:03:20;;;;;;;37.20;27.65;;;;;;;9.91;68.61;100604.46;1789076;79;20959;-72
2021/11/22 10:05:57;;;;;;;38.73;27.67;;;;;;;9.90;68.80;100605.41;1788884;80;21022;-73
2021/11/22 10:08:25;;;;;;;35.30;26.57;;;;;;;9.89;68.86;100600.25;1788875;79;21010;-72
2021/11/22 10:10:57;;;;;;;39.48;28.75;;;;;;;9.87;68.97;100599.05;1789148;79;20911;-70
2021/11/22 10:13:39;;;;;;;33.80;25.37;;;;;;;9.84;69.17;100599.20;1789186;79;21389;-70
2021/11/22 10:16:21;;;;;;;38.55;27.73;;;;;;;9.83;69.23;100598.00;1787642;79;20896;-71
2021/11/22 10:18:55;;;;;;;40.52;25.80;;;;;;;9.83;69.37;100603.24;1789298;79;20927;-70
2021/11/22 10:21:38;;;;;;;34.88;25.85;;;;;;;9.83;69.46;100604.55;1789074;79;20919;-70
2021/11/22 10:24:07;;;;;;;34.40;27.35;;;;;;;9.85;69.36;100605.28;1789237;80;21477;-70
2021/11/22 10:26:47;;;;;;;34.38;27.27;;;;;;;9.83;69.15;100605.39;1788963;80;21139;-71
2021/11/22 10:29:25;;;;;;;42.85;27.42;;;;;;;9.82;69.18;100605.47;1789216;79;21361;-71
2021/11/22 10:31:56;;;;;;;35.23;26.35;;;;;;;9.82;69.19;100605.47;1786171;80;21361;-70
2021/11/22 10:34:23;;;;;;;36.83;28.65;;;;;;;9.78;69.10;100601.33;1787212;80;21042;-70
2021/11/22 10:36:59;;;;;;;38.45;27.77;;;;;;;9.77;69.12;100600.97;1789022;80;20864;-72
2021/11/22 10:39:27;;;;;;;41.77;29.12;;;;;;;9.75;69.22;100603.66;1788735;80;21063;-71
2021/11/22 10:41:54;;;;;;;47.38;33.48;;;;;;;9.75;69.50;100602.35;1789123;79;20892;-71
2021/11/22 10:44:20;;;;;;;43.45;31.75;;;;;;;9.77;69.50;100604.89;1789318;80;21388;-71
2021/11/22 10:46:53;;;;;;;46.77;32.23;;;;;;;9.83;69.63;100601.94;1788943;79;20887;-70
2021/11/22 10:49:38;;;;;;;40.33;28.90;;;;;;;9.88;69.50;100599.41;1790576;80;21365;-70
2021/11/22 10:52:25;;;;;;;38.05;29.30;;;;;;;9.94;69.14;100606.09;1793431;79;21144;-71
2021/11/22 10:54:56;;;;;;;;;;;;;;;9.99;68.96;100597.96;1795696;79;21543;-71
2021/11/22 10:57:25;;;;;;;40.78;29.35;;;;;;;10.00;68.72;100605.70;1794772;80;20112;-72
2021/11/22 10:59:52;;;;;;;43.15;30.90;;;;;;;9.95;68.72;100603.83;1794331;80;20919;-71
2021/11/22 11:02:19;;;;;;;45.00;32.13;;;;;;;9.93;68.81;100600.45;1794760;79;21385;-72
2021/11/22 11:04:46;;;;;;;40.95;29.37;;;;;;;9.92;68.76;100602.71;1794920;79;21108;-72
2021/11/22 11:07:14;;;;;;;43.98;28.98;;;;;;;9.92;68.94;100600.92;1794771;79;20886;-73
2021/11/22 11:09:53;;;;;;;38.63;29.20;;;;;;;9.94;69.04;100601.69;1793524;79;20930;-72
2021/11/22 11:12:28;;;;;;;37.80;27.27;;;;;;;9.98;68.97;100593.16;1794760;79;20946;-71
2021/11/22 11:14:58;;;;;;;40.63;28.47;;;;;;;10.04;68.83;100593.29;1795044;79;20970;-72
2021/11/22 11:17:35;;;;;;;42.43;29.87;;;;;;;10.09;68.83;100585.99;1794708;80;21148;-72
2021/11/22 11:20:14;;;;;;;43.38;30.65;;;;;;;10.16;68.70;100589.97;1794855;79;21414;-73
2021/11/22 11:22:41;;;;;;;42.45;30.12;;;;;;;10.24;68.46;100592.13;1794582;80;20883;-74
2021/11/22 11:25:08;;;;;;;40.50;33.10;;;;;;;10.29;68.35;100596.64;1794996;80;20939;-72
2021/11/22 11:27:41;;;;;;;46.23;32.75;;;;;;;10.34;68.08;100593.30;1794674;79;20942;-73